createdAt,value
2019-02-21T00:02:23.664Z,101139.67
2019-02-21T00:04:52.594Z,101143.97
2019-02-21T00:07:21.403Z,101146.39
2019-02-21T00:09:50.361Z,101152.62
2019-02-21T00:12:19.329Z,101154.20
2019-02-21T00:14:48.149Z,101155.80
2019-02-21T00:17:17.118Z,101155.22
2019-02-21T00:19:46.055Z,101152.77
2019-02-21T00:22:14.881Z,101151.93
2019-02-21T00:24:43.707Z,101162.19
2019-02-21T00:27:12.493Z,101162.17
2019-02-21T00:29:41.361Z,101168.39
2019-02-21T00:32:10.285Z,101168.63
2019-02-21T00:34:39.118Z,101161.54
2019-02-21T00:37:07.974Z,101162.62
2019-02-21T00:39:36.900Z,101162.31
2019-02-21T00:42:05.823Z,101157.14
2019-02-21T00:44:34.628Z,101161.75
2019-02-21T00:47:03.373Z,101157.41
2019-02-21T00:49:32.240Z,101156.59
2019-02-21T00:52:02.750Z,101167.43
2019-02-21T00:54:31.938Z,101164.98
2019-02-21T00:57:00.724Z,101163.03
2019-02-21T00:59:29.601Z,101158.20
2019-02-21T01:01:58.436Z,101158.97
2019-02-21T01:04:27.308Z,101152.72
2019-02-21T01:06:56.072Z,101150.55
2019-02-21T01:09:24.812Z,101156.52
2019-02-21T01:11:53.620Z,101152.17
2019-02-21T01:14:22.442Z,101159.48
2019-02-21T01:16:51.277Z,101152.37
2019-02-21T01:19:20.037Z,101154.55
2019-02-21T01:21:48.783Z,101152.63
2019-02-21T01:24:17.673Z,101154.78
2019-02-21T01:26:46.522Z,101155.86
2019-02-21T01:29:15.393Z,101157.16
2019-02-21T01:31:44.245Z,101158.23
2019-02-21T01:34:13.061Z,101155.47
2019-02-21T01:36:41.809Z,101154.06
2019-02-21T01:39:10.779Z,101155.67
2019-02-21T01:41:39.766Z,101154.83
2019-02-21T01:44:08.475Z,101155.87
2019-02-21T01:46:37.395Z,101155.31
2019-02-21T01:49:06.269Z,101155.30
2019-02-21T01:51:35.229Z,101154.70
2019-02-21T01:54:04.051Z,101154.39
2019-02-21T01:56:32.996Z,101147.88
2019-02-21T01:59:01.793Z,101152.17
2019-02-21T02:01:30.585Z,101154.03
2019-02-21T02:03:59.418Z,101158.36
2019-02-21T02:06:28.389Z,101147.45
2019-02-21T02:08:57.344Z,101156.66
2019-02-21T02:11:26.209Z,101155.56
2019-02-21T02:13:55.158Z,101151.44
2019-02-21T02:16:23.934Z,101153.05
2019-02-21T02:18:52.721Z,101152.48
2019-02-21T02:21:21.478Z,101151.11
2019-02-21T02:23:50.361Z,101143.20
2019-02-21T02:26:19.474Z,101148.34
2019-02-21T02:28:48.349Z,101152.09
2019-02-21T02:31:22.594Z,101157.52
2019-02-21T02:33:47.835Z,101157.20
2019-02-21T02:36:16.751Z,101158.27
2019-02-21T02:38:45.595Z,101158.81
2019-02-21T02:41:14.520Z,101161.77
2019-02-21T02:43:43.514Z,101165.27
2019-02-21T02:46:12.334Z,101172.86
2019-02-21T02:48:41.165Z,101171.73
2019-02-21T02:51:09.950Z,101171.45
2019-02-21T02:53:38.745Z,101175.22
2019-02-21T02:56:07.610Z,101182.00
2019-02-21T02:58:36.432Z,101181.72
2019-02-21T03:01:05.215Z,101180.36
2019-02-21T03:03:34.103Z,101188.20
2019-02-21T03:06:03.008Z,101193.34
2019-02-21T03:08:31.951Z,101205.23
2019-02-21T03:11:00.819Z,101198.69
2019-02-21T03:13:29.671Z,101199.23
2019-02-21T03:15:58.539Z,101197.84
2019-02-21T03:18:27.353Z,101200.27
2019-02-21T03:20:56.167Z,101191.83
2019-02-21T03:23:24.950Z,101196.73
2019-02-21T03:25:53.868Z,101192.36
2019-02-21T03:28:22.625Z,101189.09
2019-02-21T03:30:51.521Z,101196.67
2019-02-21T03:33:20.454Z,101190.16
2019-02-21T03:35:49.216Z,101189.63
2019-02-21T03:38:18.160Z,101181.47
2019-02-21T03:40:46.972Z,101188.77
2019-02-21T03:43:15.849Z,101182.51
2019-02-21T03:45:44.721Z,101183.05
2019-02-21T03:48:13.509Z,101181.95
2019-02-21T03:50:42.518Z,101188.42
2019-02-21T03:53:11.461Z,101187.61
2019-02-21T03:55:40.314Z,101189.50
2019-02-21T03:58:09.209Z,101182.16
2019-02-21T04:00:38.049Z,101188.93
2019-02-21T04:03:06.820Z,101181.03
2019-02-21T04:05:35.669Z,101176.41
2019-02-21T04:08:04.678Z,101171.52
2019-02-21T04:10:33.555Z,101174.77
2019-02-21T04:13:02.480Z,101174.48
2019-02-21T04:15:31.304Z,101170.33
2019-02-21T04:18:00.275Z,101174.39
2019-02-21T04:20:29.142Z,101180.05
2019-02-21T04:22:57.996Z,101180.84
2019-02-21T04:25:26.794Z,101175.64
2019-02-21T04:27:55.636Z,101175.36
2019-02-21T04:30:24.447Z,101179.95
2019-02-21T04:32:53.265Z,101174.51
2019-02-21T04:35:22.363Z,101167.74
2019-02-21T04:37:51.352Z,101166.11
2019-02-21T04:40:20.370Z,101157.10
2019-02-21T04:42:49.349Z,101165.22
2019-02-21T04:45:18.141Z,101160.09
2019-02-21T04:47:47.125Z,101159.81
2019-02-21T04:50:16.071Z,101159.81
2019-02-21T04:52:44.972Z,101157.92
2019-02-21T04:55:13.839Z,101162.27
2019-02-21T04:57:42.747Z,101162.52
2019-02-21T05:00:12.457Z,101158.20
2019-02-21T05:02:41.390Z,101155.21
2019-02-21T05:05:10.125Z,101158.20
2019-02-21T05:07:38.976Z,101156.03
2019-02-21T05:10:07.940Z,101154.14
2019-02-21T05:12:36.816Z,101153.64
2019-02-21T05:15:05.795Z,101157.70
2019-02-21T05:17:34.698Z,101157.98
2019-02-21T05:20:03.591Z,101159.05
2019-02-21T05:22:32.542Z,101158.73
2019-02-21T05:25:01.379Z,101159.05
2019-02-21T05:27:33.889Z,101160.41
2019-02-21T05:30:02.733Z,101160.91
2019-02-21T05:32:45.716Z,101162.80
2019-02-21T05:35:31.426Z,101162.27
2019-02-21T05:38:19.556Z,101161.16
2019-02-21T05:40:58.672Z,101165.19
2019-02-21T05:43:49.385Z,101164.37
2019-02-21T05:46:39.193Z,101169.50
2019-02-21T05:49:29.699Z,101168.14
2019-02-21T05:52:26.493Z,101161.31
2019-02-21T05:54:59.058Z,101168.08
2019-02-21T05:57:43.093Z,101166.98
2019-02-21T06:00:29.417Z,101171.28
2019-02-21T06:03:16.009Z,101169.40
2019-02-21T06:06:09.403Z,101173.39
2019-02-21T06:08:47.010Z,101177.16
2019-02-21T06:11:35.034Z,101176.88
2019-02-21T06:14:17.368Z,101174.42
2019-02-21T06:17:08.139Z,101184.42
2019-02-21T06:19:55.904Z,101181.12
2019-02-21T06:22:40.284Z,101185.72
2019-02-21T06:25:15.075Z,101196.53
2019-02-21T06:28:05.604Z,101197.60
2019-02-21T06:30:43.284Z,101204.08
2019-02-21T06:33:11.759Z,101201.09
2019-02-21T06:35:40.566Z,101208.67
2019-02-21T06:38:09.564Z,101209.45
2019-02-21T06:40:38.408Z,101205.44
2019-02-21T06:43:07.198Z,101209.03
2019-02-21T06:45:36.002Z,101211.23
2019-02-21T06:48:04.873Z,101212.41
2019-02-21T06:50:33.877Z,101215.16
2019-02-21T06:53:02.702Z,101221.20
2019-02-21T06:55:31.593Z,101211.52
2019-02-21T06:58:00.480Z,101223.23
2019-02-21T07:00:29.282Z,101223.27
2019-02-21T07:02:58.005Z,101235.52
2019-02-21T07:05:26.865Z,101232.02
2019-02-21T07:07:55.708Z,101233.13
2019-02-21T07:10:24.647Z,101227.27
2019-02-21T07:12:53.505Z,101231.12
2019-02-21T07:15:22.298Z,101232.81
2019-02-21T07:17:51.244Z,101227.88
2019-02-21T07:20:20.076Z,101233.64
2019-02-21T07:22:48.849Z,101230.42
2019-02-21T07:25:39.811Z,101221.84
2019-02-21T07:28:11.824Z,101222.94
2019-02-21T07:30:39.303Z,101224.10
2019-02-21T07:33:08.278Z,101222.31
2019-02-21T07:35:37.202Z,101226.75
2019-02-21T07:38:06.088Z,101227.06
2019-02-21T07:40:34.916Z,101227.94
2019-02-21T07:43:03.773Z,101225.98
2019-02-21T07:45:32.699Z,101230.49
2019-02-21T07:48:01.924Z,101229.59
2019-02-21T07:50:30.906Z,101240.82
2019-02-21T07:53:02.731Z,101241.32
2019-02-21T07:55:30.506Z,101239.63
2019-02-21T07:57:59.351Z,101239.74
2019-02-21T08:00:28.244Z,101250.78
2019-02-21T08:02:57.084Z,101243.78
2019-02-21T08:05:25.972Z,101248.83
2019-02-21T08:07:54.873Z,101252.55
2019-02-21T08:10:33.188Z,101247.34
2019-02-21T08:12:54.344Z,101248.58
2019-02-21T08:15:23.290Z,101250.34
2019-02-21T08:17:52.362Z,101250.84
2019-02-21T08:20:21.293Z,101249.14
2019-02-21T08:22:50.146Z,101248.50
2019-02-21T08:25:19.435Z,101256.03
2019-02-21T08:27:48.476Z,101263.55
2019-02-21T08:30:17.294Z,101260.39
2019-02-21T08:33:09.110Z,101259.56
2019-02-21T08:35:37.921Z,101251.66
2019-02-21T08:38:06.765Z,101256.02
2019-02-21T08:40:35.773Z,101259.56
2019-02-21T08:43:04.634Z,101261.78
2019-02-21T08:45:33.501Z,101262.39
2019-02-21T08:48:02.462Z,101271.64
2019-02-21T08:50:31.318Z,101272.55
2019-02-21T08:53:01.112Z,101264.92
2019-02-21T08:55:30.174Z,101273.77
2019-02-21T08:57:59.085Z,101271.30
2019-02-21T09:00:27.956Z,101282.31
2019-02-21T09:02:56.798Z,101288.09
2019-02-21T09:05:25.539Z,101291.16
2019-02-21T09:07:54.372Z,101283.04
2019-02-21T09:10:23.251Z,101282.14
2019-02-21T09:12:52.058Z,101290.27
2019-02-21T09:15:20.943Z,101289.27
2019-02-21T09:17:49.745Z,101290.09
2019-02-21T09:20:18.693Z,101293.25
2019-02-21T09:22:47.643Z,101298.51
2019-02-21T09:25:16.553Z,101297.00
2019-02-21T09:27:45.405Z,101295.20
2019-02-21T09:30:18.373Z,101296.59
2019-02-21T09:32:47.422Z,101306.13
2019-02-21T09:35:16.319Z,101301.87
2019-02-21T09:37:45.146Z,101303.39
2019-02-21T09:40:14.171Z,101304.61
2019-02-21T09:42:43.111Z,101311.86
2019-02-21T09:45:14.991Z,101317.71
2019-02-21T09:47:43.909Z,101319.99
2019-02-21T09:50:12.810Z,101311.47
2019-02-21T09:52:41.652Z,101309.77
2019-02-21T09:55:12.017Z,101304.81
2019-02-21T09:57:41.020Z,101306.56
2019-02-21T10:00:20.082Z,101301.94
2019-02-21T10:02:48.857Z,101298.94
2019-02-21T10:05:17.774Z,101293.53
2019-02-21T10:07:46.650Z,101292.72
2019-02-21T10:10:18.787Z,101298.41
2019-02-21T10:12:47.629Z,101295.98
2019-02-21T10:15:16.597Z,101296.67
2019-02-21T10:17:45.432Z,101295.08
2019-02-21T10:20:16.347Z,101288.52
2019-02-21T10:22:45.280Z,101289.02
2019-02-21T10:25:19.471Z,101295.02
2019-02-21T10:27:48.373Z,101296.09
2019-02-21T10:30:18.721Z,101289.11
2019-02-21T10:32:47.523Z,101297.59
2019-02-21T10:35:16.354Z,101289.82
2019-02-21T10:37:45.175Z,101291.18
2019-02-21T10:40:14.138Z,101284.69
2019-02-21T10:42:43.168Z,101281.97
2019-02-21T10:45:14.359Z,101277.44
2019-02-21T10:47:43.309Z,101274.00
2019-02-21T10:50:14.960Z,101270.86
2019-02-21T10:52:43.967Z,101267.75
2019-02-21T10:55:12.784Z,101269.52
2019-02-21T10:57:41.684Z,101266.94
2019-02-21T11:00:29.293Z,101261.41
2019-02-21T11:02:58.291Z,101259.32
2019-02-21T11:05:27.337Z,101265.13
2019-02-21T11:07:56.306Z,101263.66
2019-02-21T11:10:26.789Z,101261.73
2019-02-21T11:12:55.781Z,101259.48
2019-02-21T11:15:24.949Z,101264.84
2019-02-21T11:17:53.826Z,101269.34
2019-02-21T11:20:22.886Z,101258.48
2019-02-21T11:22:51.839Z,101258.20
2019-02-21T11:25:20.664Z,101260.90
2019-02-21T11:27:49.578Z,101266.06
2019-02-21T11:30:18.781Z,101263.36
2019-02-21T11:32:47.741Z,101258.48
2019-02-21T11:35:16.619Z,101261.43
2019-02-21T11:37:47.026Z,101254.67
2019-02-21T11:40:16.286Z,101244.16
2019-02-21T11:42:45.151Z,101242.80
2019-02-21T11:45:15.185Z,101245.80
2019-02-21T11:47:44.070Z,101246.91
2019-02-21T11:50:14.412Z,101243.67
2019-02-21T11:52:43.269Z,101251.28
2019-02-21T11:55:13.603Z,101252.55
2019-02-21T11:57:42.499Z,101257.42
2019-02-21T12:00:15.048Z,101253.38
2019-02-21T12:02:43.886Z,101249.32
2019-02-21T12:05:17.419Z,101247.97
2019-02-21T12:07:43.335Z,101235.81
2019-02-21T12:10:12.118Z,101225.82
2019-02-21T12:12:41.042Z,101231.02
2019-02-21T12:15:10.613Z,101228.31
2019-02-21T12:17:39.481Z,101221.84
2019-02-21T12:20:10.388Z,101228.89
2019-02-21T12:22:39.300Z,101230.53
2019-02-21T12:25:10.089Z,101221.89
2019-02-21T12:27:38.988Z,101219.48
2019-02-21T12:30:09.320Z,101215.71
2019-02-21T12:32:38.224Z,101220.66
2019-02-21T12:35:07.335Z,101218.78
2019-02-21T12:37:36.209Z,101219.55
2019-02-21T12:40:05.488Z,101221.89
2019-02-21T12:42:34.383Z,101218.85
2019-02-21T12:45:03.359Z,101221.55
2019-02-21T12:47:32.133Z,101226.72
2019-02-21T12:50:01.035Z,101224.88
2019-02-21T12:52:29.976Z,101233.36
2019-02-21T12:54:58.959Z,101235.04
2019-02-21T12:57:27.907Z,101232.75
2019-02-21T12:59:56.849Z,101233.69
2019-02-21T13:02:25.615Z,101234.95
2019-02-21T13:04:54.478Z,101243.95
2019-02-21T13:07:23.455Z,101243.17
2019-02-21T13:09:52.516Z,101241.05
2019-02-21T13:12:21.350Z,101237.81
2019-02-21T13:14:50.255Z,101236.99
2019-02-21T13:17:19.328Z,101252.47
2019-02-21T13:19:48.086Z,101247.59
2019-02-21T13:22:17.027Z,101234.81
2019-02-21T13:24:45.990Z,101245.75
2019-02-21T13:27:14.915Z,101239.85
2019-02-21T13:29:43.922Z,101239.97
2019-02-21T13:32:12.814Z,101240.86
2019-02-21T13:34:41.809Z,101234.39
2019-02-21T13:37:10.754Z,101246.31
2019-02-21T13:39:39.668Z,101244.42
2019-02-21T13:42:08.553Z,101248.48
2019-02-21T13:44:37.356Z,101241.72
2019-02-21T13:47:06.284Z,101245.11
2019-02-21T13:49:35.188Z,101237.36
2019-02-21T13:52:04.165Z,101237.18
2019-02-21T13:54:33.153Z,101236.41
2019-02-21T13:57:02.078Z,101232.09
2019-02-21T13:59:30.890Z,101230.78
2019-02-21T14:01:59.928Z,101237.62
2019-02-21T14:04:28.935Z,101244.95
2019-02-21T14:06:57.961Z,101232.20
2019-02-21T14:09:26.909Z,101246.30
2019-02-21T14:11:55.932Z,101243.59
2019-02-21T14:14:24.838Z,101244.42
2019-02-21T14:16:53.777Z,101251.14
2019-02-21T14:19:22.790Z,101258.19
2019-02-21T14:21:51.858Z,101240.50
2019-02-21T14:24:20.840Z,101251.47
2019-02-21T14:26:49.885Z,101245.45
2019-02-21T14:29:18.733Z,101249.92
2019-02-21T14:31:47.715Z,101244.81
2019-02-21T14:34:16.697Z,101253.14
2019-02-21T14:36:45.713Z,101254.88
2019-02-21T14:39:14.653Z,101247.58
2019-02-21T14:41:44.022Z,101250.77
2019-02-21T14:44:12.859Z,101247.98
2019-02-21T14:46:41.887Z,101246.81
2019-02-21T14:49:11.132Z,101254.56
2019-02-21T14:51:40.188Z,101249.25
2019-02-21T14:54:09.114Z,101252.09
2019-02-21T14:56:37.894Z,101246.17
2019-02-21T14:59:06.795Z,101248.37
2019-02-21T15:01:35.643Z,101253.86
2019-02-21T15:04:04.480Z,101248.73
2019-02-21T15:06:33.349Z,101253.64
2019-02-21T15:09:02.386Z,101255.59
2019-02-21T15:11:31.394Z,101255.60
2019-02-21T15:14:00.478Z,101247.80
2019-02-21T15:16:29.377Z,101256.77
2019-02-21T15:18:58.283Z,101253.23
2019-02-21T15:21:27.250Z,101259.26
2019-02-21T15:23:56.459Z,101263.03
2019-02-21T15:26:25.443Z,101266.28
2019-02-21T15:28:54.361Z,101267.30
2019-02-21T15:31:23.237Z,101271.36
2019-02-21T15:33:52.184Z,101269.95
2019-02-21T15:36:21.144Z,101273.14
2019-02-21T15:38:50.064Z,101272.80
2019-02-21T15:41:19.031Z,101273.50
2019-02-21T15:43:47.995Z,101275.62
2019-02-21T15:46:17.013Z,101279.42
2019-02-21T15:48:45.988Z,101281.84
2019-02-21T15:51:15.598Z,101286.80
2019-02-21T15:53:44.567Z,101287.91
2019-02-21T15:56:13.428Z,101285.59
2019-02-21T15:58:42.500Z,101280.86
2019-02-21T16:01:14.158Z,101282.96
2019-02-21T16:03:42.632Z,101291.01
2019-02-21T16:06:12.015Z,101283.52
2019-02-21T16:08:41.010Z,101296.40
2019-02-21T16:11:10.308Z,101291.88
2019-02-21T16:13:39.845Z,101281.33
2019-02-21T16:16:09.208Z,101282.72
2019-02-21T16:18:38.296Z,101277.87
2019-02-21T16:21:07.402Z,101267.53
2019-02-21T16:23:36.391Z,101265.10
2019-02-21T16:26:05.379Z,101267.01
2019-02-21T16:28:34.337Z,101251.76
2019-02-21T16:31:03.347Z,101256.66
2019-02-21T16:33:32.392Z,101257.23
2019-02-21T16:36:01.326Z,101253.39
2019-02-21T16:38:30.230Z,101252.83
2019-02-21T16:40:59.438Z,101252.28
2019-02-21T16:43:28.902Z,101251.47
2019-02-21T16:46:07.435Z,101251.73
2019-02-21T16:48:29.370Z,101254.73
2019-02-21T16:50:58.432Z,101255.28
2019-02-21T16:53:27.525Z,101263.42
2019-02-21T16:55:56.534Z,101259.06
2019-02-21T16:58:25.494Z,101261.19
2019-02-21T17:00:56.757Z,101268.30
2019-02-21T17:03:25.594Z,101271.86
2019-02-21T17:05:54.615Z,101274.93
2019-02-21T17:08:25.128Z,101273.59
2019-02-21T17:10:54.120Z,101280.45
2019-02-21T17:13:23.116Z,101285.98
2019-02-21T17:15:52.839Z,101279.46
2019-02-21T17:18:22.468Z,101286.02
2019-02-21T17:20:51.831Z,101284.37
2019-02-21T17:23:23.058Z,101290.11
2019-02-21T17:25:51.881Z,101294.73
2019-02-21T17:28:20.986Z,101301.82
2019-02-21T17:30:51.279Z,101310.23
2019-02-21T17:33:20.413Z,101308.87
2019-02-21T17:35:49.528Z,101313.23
2019-02-21T17:38:18.911Z,101317.33
2019-02-21T17:40:48.034Z,101321.19
2019-02-21T17:43:17.795Z,101333.19
2019-02-21T17:45:48.037Z,101339.72
2019-02-21T17:48:18.053Z,101349.01
2019-02-21T17:50:48.753Z,101348.73
2019-02-21T17:53:18.151Z,101350.66
2019-02-21T17:55:47.440Z,101361.27
2019-02-21T17:58:17.352Z,101356.06
2019-02-21T18:00:47.508Z,101360.67
2019-02-21T18:03:17.361Z,101355.75
2019-02-21T18:05:47.206Z,101356.80
2019-02-21T18:08:16.520Z,101357.29
2019-02-21T18:10:46.166Z,101350.75
2019-02-21T18:13:16.334Z,101339.03
2019-02-21T18:15:45.696Z,101350.73
2019-02-21T18:18:15.090Z,101349.64
2019-02-21T18:20:44.094Z,101352.94
2019-02-21T18:23:13.104Z,101358.71
2019-02-21T18:25:56.298Z,101362.56
2019-02-21T18:28:25.033Z,101365.87
2019-02-21T18:30:54.618Z,101369.19
2019-02-21T18:33:23.960Z,101372.22
2019-02-21T18:35:53.537Z,101369.52
2019-02-21T18:38:23.121Z,101369.80
2019-02-21T18:40:54.493Z,101363.78
2019-02-21T18:43:23.758Z,101371.14
2019-02-21T18:45:53.417Z,101364.03
2019-02-21T18:48:23.563Z,101362.67
2019-02-21T18:50:53.753Z,101364.84
2019-02-21T18:53:23.688Z,101368.93
2019-02-21T18:55:54.482Z,101374.13
2019-02-21T18:58:27.012Z,101379.59
2019-02-21T19:00:57.007Z,101377.16
2019-02-21T19:03:26.822Z,101388.63
2019-02-21T19:05:56.499Z,101387.25
2019-02-21T19:08:26.662Z,101392.17
2019-02-21T19:10:56.182Z,101389.45
2019-02-21T19:13:26.052Z,101388.91
2019-02-21T19:15:55.862Z,101394.07
2019-02-21T19:18:29.407Z,101397.08
2019-02-21T19:20:59.548Z,101399.74
2019-02-21T19:23:29.300Z,101403.28
2019-02-21T19:25:59.746Z,101401.09
2019-02-21T19:28:29.949Z,101406.52
2019-02-21T19:31:03.423Z,101412.23
2019-02-21T19:33:33.371Z,101402.95
2019-02-21T19:36:02.763Z,101408.40
2019-02-21T19:38:32.179Z,101406.52
2019-02-21T19:41:01.744Z,101407.61
2019-02-21T19:43:32.677Z,101410.59
2019-02-21T19:46:04.688Z,101415.53
2019-02-21T19:48:34.655Z,101416.91
2019-02-21T19:51:04.404Z,101419.64
2019-02-21T19:53:35.613Z,101421.30
2019-02-21T19:56:05.279Z,101427.61
2019-02-21T19:58:34.349Z,101424.09
2019-02-21T20:01:04.740Z,101423.84
2019-02-21T20:03:34.654Z,101429.29
2019-02-21T20:06:04.266Z,101426.28
2019-02-21T20:08:33.602Z,101433.09
2019-02-21T20:11:03.283Z,101441.06
2019-02-21T20:13:33.544Z,101441.05
2019-02-21T20:16:03.270Z,101450.89
2019-02-21T20:18:33.188Z,101449.48
2019-02-21T20:21:03.026Z,101452.48
2019-02-21T20:23:33.076Z,101450.58
2019-02-21T20:26:03.070Z,101454.13
2019-02-21T20:28:32.405Z,101454.96
2019-02-21T20:31:01.920Z,101462.85
2019-02-21T20:33:31.703Z,101466.95
2019-02-21T20:36:02.047Z,101459.02
2019-02-21T20:38:32.531Z,101460.67
2019-02-21T20:41:02.417Z,101455.72
2019-02-21T20:43:32.231Z,101462.50
2019-02-21T20:46:01.376Z,101467.94
2019-02-21T20:48:31.576Z,101473.38
2019-02-21T20:51:01.849Z,101479.09
2019-02-21T20:53:31.500Z,101481.79
2019-02-21T20:56:01.243Z,101476.83
2019-02-21T20:58:30.582Z,101484.95
2019-02-21T21:01:00.043Z,101477.01
2019-02-21T21:03:29.682Z,101481.09
2019-02-21T21:05:59.091Z,101481.95
2019-02-21T21:08:28.119Z,101482.25
2019-02-21T21:10:57.242Z,101494.55
2019-02-21T21:13:26.468Z,101496.21
2019-02-21T21:15:56.078Z,101500.88
2019-02-21T21:18:25.489Z,101499.29
2019-02-21T21:20:55.050Z,101502.30
2019-02-21T21:23:24.601Z,101500.73
2019-02-21T21:25:54.085Z,101501.59
2019-02-21T21:28:23.756Z,101501.62
2019-02-21T21:30:53.472Z,101495.90
2019-02-21T21:33:22.552Z,101497.27
2019-02-21T21:35:51.480Z,101500.81
2019-02-21T21:38:24.244Z,101499.17
2019-02-21T21:40:51.349Z,101498.92
2019-02-21T21:43:20.350Z,101499.17
2019-02-21T21:45:49.543Z,101498.08
2019-02-21T21:48:18.666Z,101499.18
2019-02-21T21:50:47.678Z,101503.02
2019-02-21T21:53:16.747Z,101506.55
2019-02-21T21:55:45.890Z,101511.16
2019-02-21T21:58:14.939Z,101515.27
2019-02-21T22:00:44.232Z,101522.34
2019-02-21T22:03:13.244Z,101516.88
2019-02-21T22:05:42.170Z,101515.77
2019-02-21T22:08:11.129Z,101518.48
2019-02-21T22:10:40.009Z,101519.52
2019-02-21T22:13:09.016Z,101524.38
2019-02-21T22:15:38.138Z,101523.56
2019-02-21T22:18:07.094Z,101527.63
2019-02-21T22:20:36.065Z,101532.50
2019-02-21T22:23:05.251Z,101526.48
2019-02-21T22:25:34.111Z,101523.75
2019-02-21T22:28:02.972Z,101525.90
2019-02-21T22:30:31.885Z,101519.33
2019-02-21T22:33:00.750Z,101520.38
2019-02-21T22:35:29.706Z,101525.56
2019-02-21T22:37:58.724Z,101523.06
2019-02-21T22:40:27.744Z,101533.66
2019-02-21T22:42:56.732Z,101534.44
2019-02-21T22:45:25.662Z,101540.67
2019-02-21T22:47:54.543Z,101548.25
2019-02-21T22:50:23.382Z,101543.85
2019-02-21T22:52:52.309Z,101553.34
2019-02-21T22:55:21.233Z,101555.78
2019-02-21T22:57:50.245Z,101552.75
2019-02-21T23:00:54.730Z,101558.14
2019-02-21T23:03:23.737Z,101551.86
2019-02-21T23:06:48.910Z,101559.44
2019-02-21T23:09:27.592Z,101558.30
2019-02-21T23:11:53.172Z,101554.70
2019-02-21T23:14:22.120Z,101572.66
2019-02-21T23:16:50.918Z,101580.50
2019-02-21T23:19:19.704Z,101576.63
2019-02-21T23:21:48.680Z,101575.49
2019-02-21T23:24:17.641Z,101584.19
2019-02-21T23:26:46.574Z,101578.93
2019-02-21T23:29:15.396Z,101576.18
2019-02-21T23:31:44.356Z,101530.89
2019-02-21T23:34:23.408Z,101592.94
2019-02-21T23:36:52.474Z,101593.19
2019-02-21T23:39:21.438Z,101593.68
2019-02-21T23:41:50.234Z,101595.02
2019-02-21T23:44:19.232Z,101597.67
2019-02-21T23:46:48.201Z,101593.27
2019-02-21T23:49:17.020Z,101595.69
2019-02-21T23:51:45.949Z,101604.88
2019-02-21T23:54:14.904Z,101602.69
2019-02-21T23:56:43.815Z,101600.17
2019-02-21T23:59:12.721Z,101602.05
